createdAt,value
2023-04-16T00:00:53.280Z,98141.13
2023-04-16T00:02:58.124Z,98135.09
2023-04-16T00:05:03.080Z,98134.31
2023-04-16T00:07:07.854Z,98141.06
2023-04-16T00:09:12.504Z,98142.06
2023-04-16T00:11:17.177Z,98133.56
2023-04-16T00:13:26.298Z,98137.84
2023-04-16T00:15:31.042Z,98142.44
2023-04-16T00:17:36.091Z,98143.88
2023-04-16T00:19:41.396Z,98146.56
2023-04-16T00:21:46.129Z,98143.00
2023-04-16T00:23:50.914Z,98144.91
2023-04-16T00:25:57.396Z,98142.34
2023-04-16T00:28:03.243Z,98138.03
2023-04-16T00:30:11.266Z,98148.53
2023-04-16T00:32:16.514Z,98140.84
2023-04-16T00:34:21.241Z,98143.28
2023-04-16T00:36:26.171Z,98139.72
2023-04-16T00:38:32.775Z,98145.06
2023-04-16T00:40:37.550Z,98143.16
2023-04-16T00:42:42.282Z,98140.41
2023-04-16T00:44:47.943Z,98140.53
2023-04-16T00:46:55.276Z,98140.75
2023-04-16T00:49:00.455Z,98142.31
2023-04-16T00:51:07.517Z,98150.84
2023-04-16T00:53:25.815Z,98134.25
2023-04-16T00:55:31.175Z,98134.53
2023-04-16T00:57:36.002Z,98137.97
2023-04-16T00:59:40.649Z,98140.44
2023-04-16T01:01:45.467Z,98139.94
2023-04-16T01:03:52.916Z,98144.06
2023-04-16T01:05:58.530Z,98148.19
2023-04-16T01:08:03.510Z,98142.94
2023-04-16T01:10:10.002Z,98140.44
2023-04-16T01:12:14.670Z,98135.25
2023-04-16T01:14:19.559Z,98142.88
2023-04-16T01:16:24.328Z,98143.66
2023-04-16T01:18:29.172Z,98146.78
2023-04-16T01:20:39.959Z,98144.94
2023-04-16T01:22:44.639Z,98136.44
2023-04-16T01:24:49.250Z,98135.44
2023-04-16T01:26:53.858Z,98145.63
2023-04-16T01:28:58.605Z,98131.78
2023-04-16T01:31:03.541Z,98136.88
2023-04-16T01:33:37.061Z,98134.47
2023-04-16T01:35:45.446Z,98135.31
2023-04-16T01:37:53.382Z,98139.88
2023-04-16T01:39:58.132Z,98139.47
2023-04-16T01:42:02.795Z,98147.94
2023-04-16T01:44:07.724Z,98139.00
2023-04-16T01:46:16.601Z,98135.44
2023-04-16T01:48:21.285Z,98134.25
2023-04-16T01:50:26.485Z,98139.31
2023-04-16T01:52:34.006Z,98135.66
2023-04-16T01:54:38.632Z,98138.78
2023-04-16T01:56:43.383Z,98136.75
2023-04-16T01:58:48.650Z,98129.63
2023-04-16T02:00:55.466Z,98130.50
2023-04-16T02:03:00.412Z,98124.44
2023-04-16T02:05:06.836Z,98124.34
2023-04-16T02:07:11.855Z,98131.00
2023-04-16T02:09:19.107Z,98124.69
2023-04-16T02:11:24.051Z,98124.69
2023-04-16T02:13:29.435Z,98124.16
2023-04-16T02:15:34.072Z,98118.47
2023-04-16T02:17:39.193Z,98132.75
2023-04-16T02:19:48.544Z,98136.16
2023-04-16T02:21:54.228Z,98133.72
2023-04-16T02:23:59.004Z,98133.78
2023-04-16T02:26:09.274Z,98133.25
2023-04-16T02:28:16.059Z,98131.78
2023-04-16T02:30:22.503Z,98135.22
2023-04-16T02:32:27.363Z,98137.38
2023-04-16T02:34:33.819Z,98141.56
2023-04-16T02:36:38.513Z,98138.25
2023-04-16T02:38:43.230Z,98136.59
2023-04-16T02:40:47.878Z,98149.50
2023-04-16T02:42:56.315Z,98141.50
2023-04-16T02:45:00.999Z,98139.56
2023-04-16T02:47:06.589Z,98142.25
2023-04-16T02:49:11.650Z,98142.03
2023-04-16T02:51:16.456Z,98142.75
2023-04-16T02:53:21.626Z,98147.19
2023-04-16T02:55:26.334Z,98149.16
2023-04-16T02:57:30.981Z,98151.63
2023-04-16T02:59:38.268Z,98145.72
2023-04-16T03:01:42.982Z,98145.06
2023-04-16T03:03:47.827Z,98145.84
2023-04-16T03:05:52.690Z,98145.91
2023-04-16T03:07:57.623Z,98151.88
2023-04-16T03:10:02.262Z,98152.69
2023-04-16T03:12:07.187Z,98149.97
2023-04-16T03:14:11.901Z,98156.06
2023-04-16T03:16:19.291Z,98154.19
2023-04-16T03:18:23.961Z,98146.13
2023-04-16T03:20:28.740Z,98156.38
2023-04-16T03:22:33.387Z,98154.75
2023-04-16T03:24:38.500Z,98154.66
2023-04-16T03:26:43.183Z,98157.09
2023-04-16T03:28:48.787Z,98156.19
2023-04-16T03:30:55.390Z,98161.50
2023-04-16T03:33:02.949Z,98159.69
2023-04-16T03:35:07.978Z,98162.13
2023-04-16T03:37:14.128Z,98165.75
2023-04-16T03:39:18.907Z,98167.50
2023-04-16T03:41:24.309Z,98169.19
2023-04-16T03:43:28.967Z,98167.38
2023-04-16T03:45:33.900Z,98169.00
2023-04-16T03:47:38.566Z,98172.09
2023-04-16T03:49:45.979Z,98166.59
2023-04-16T03:51:50.815Z,98159.41
2023-04-16T03:53:55.463Z,98166.94
2023-04-16T03:56:01.002Z,98170.22
2023-04-16T03:58:06.024Z,98161.50
2023-04-16T04:00:11.798Z,98165.97
2023-04-16T04:02:19.383Z,98164.59
2023-04-16T04:04:24.280Z,98162.84
2023-04-16T04:06:32.122Z,98164.66
2023-04-16T04:08:36.814Z,98168.22
2023-04-16T04:10:46.526Z,98172.69
2023-04-16T04:12:52.654Z,98171.13
2023-04-16T04:14:58.625Z,98175.28
2023-04-16T04:17:05.045Z,98176.16
2023-04-16T04:19:09.963Z,98175.94
2023-04-16T04:21:15.164Z,98183.47
2023-04-16T04:23:22.431Z,98180.66
2023-04-16T04:25:28.002Z,98171.84
2023-04-16T04:27:32.605Z,98175.03
2023-04-16T04:29:37.322Z,98174.19
2023-04-16T04:31:42.129Z,98178.28
2023-04-16T04:33:46.784Z,98174.59
2023-04-16T04:35:51.508Z,98177.91
2023-04-16T04:37:56.398Z,98181.19
2023-04-16T04:40:03.806Z,98180.22
2023-04-16T04:42:08.471Z,98177.63
2023-04-16T04:44:13.413Z,98186.97
2023-04-16T04:46:19.337Z,98185.19
2023-04-16T04:48:26.926Z,98181.75
2023-04-16T04:50:32.544Z,98179.25
2023-04-16T04:52:37.293Z,98187.19
2023-04-16T04:54:43.030Z,98188.91
2023-04-16T04:56:51.343Z,98194.91
2023-04-16T04:58:56.625Z,98196.53
2023-04-16T05:01:01.726Z,98195.44
2023-04-16T05:03:07.984Z,98201.34
2023-04-16T05:05:12.912Z,98198.72
2023-04-16T05:07:17.602Z,98196.88
2023-04-16T05:09:22.422Z,98197.63
2023-04-16T05:11:27.091Z,98198.34
2023-04-16T05:13:34.496Z,98199.88
2023-04-16T05:15:39.131Z,98199.84
2023-04-16T05:17:43.864Z,98204.19
2023-04-16T05:19:48.586Z,98202.56
2023-04-16T05:21:53.221Z,98195.78
2023-04-16T05:23:57.766Z,98209.59
2023-04-16T05:26:02.545Z,98212.50
2023-04-16T05:28:07.476Z,98213.28
2023-04-16T05:30:15.267Z,98214.97
2023-04-16T05:32:19.936Z,98217.44
2023-04-16T05:34:24.587Z,98216.47
2023-04-16T05:36:29.416Z,98212.91
2023-04-16T05:38:34.163Z,98211.09
2023-04-16T05:40:39.152Z,98208.47
2023-04-16T05:42:43.776Z,98210.28
2023-04-16T05:44:48.508Z,98224.09
2023-04-16T05:46:56.055Z,98220.56
2023-04-16T05:49:00.850Z,98227.34
2023-04-16T05:51:05.574Z,98219.41
2023-04-16T05:53:11.155Z,98229.75
2023-04-16T05:55:15.890Z,98233.28
2023-04-16T05:57:20.626Z,98224.00
2023-04-16T05:59:25.341Z,98227.75
2023-04-16T06:01:30.878Z,98226.88
2023-04-16T06:03:39.279Z,98226.75
2023-04-16T06:05:44.126Z,98242.22
2023-04-16T06:07:48.764Z,98235.28
2023-04-16T06:09:53.428Z,98236.19
2023-04-16T06:11:58.181Z,98232.81
2023-04-16T06:14:02.834Z,98237.25
2023-04-16T06:16:08.048Z,98243.16
2023-04-16T06:18:12.749Z,98236.84
2023-04-16T06:20:20.038Z,98237.69
2023-04-16T06:22:24.736Z,98242.84
2023-04-16T06:24:32.233Z,98247.97
2023-04-16T06:26:36.791Z,98243.56
2023-04-16T06:28:41.581Z,98241.66
2023-04-16T06:30:46.295Z,98250.91
2023-04-16T06:32:51.125Z,98247.34
2023-04-16T06:34:56.508Z,98250.84
2023-04-16T06:37:03.715Z,98247.53
2023-04-16T06:39:08.709Z,98250.13
2023-04-16T06:41:13.788Z,98250.03
2023-04-16T06:43:18.557Z,98254.38
2023-04-16T06:45:23.225Z,98252.72
2023-04-16T06:47:27.977Z,98252.72
2023-04-16T06:49:32.677Z,98256.97
2023-04-16T06:51:37.562Z,98260.22
2023-04-16T06:53:45.349Z,98260.22
2023-04-16T06:55:49.954Z,98261.81
2023-04-16T06:57:54.644Z,98262.19
2023-04-16T06:59:59.270Z,98265.66
2023-04-16T07:02:03.993Z,98268.28
2023-04-16T07:04:08.944Z,98269.31
2023-04-16T07:06:13.775Z,98263.28
2023-04-16T07:08:18.401Z,98270.03
2023-04-16T07:10:25.854Z,98267.38
2023-04-16T07:12:31.693Z,98270.78
2023-04-16T07:14:36.367Z,98269.72
2023-04-16T07:16:40.996Z,98273.94
2023-04-16T07:18:45.755Z,98273.03
2023-04-16T07:20:50.714Z,98271.28
2023-04-16T07:22:55.520Z,98274.78
2023-04-16T07:25:00.200Z,98276.44
2023-04-16T07:27:07.495Z,98277.28
2023-04-16T07:29:12.430Z,98281.50
2023-04-16T07:31:17.445Z,98282.06
2023-04-16T07:33:22.185Z,98281.06
2023-04-16T07:35:26.831Z,98280.00
2023-04-16T07:37:32.737Z,98281.31
2023-04-16T07:39:37.461Z,98292.47
2023-04-16T07:41:42.864Z,98278.28
2023-04-16T07:43:53.411Z,98287.78
2023-04-16T07:45:58.222Z,98281.88
2023-04-16T07:48:03.007Z,98282.31
2023-04-16T07:50:08.254Z,98284.31
2023-04-16T07:52:13.064Z,98275.88
2023-04-16T07:54:17.868Z,98286.66
2023-04-16T07:56:22.593Z,98279.09
2023-04-16T07:58:27.182Z,98282.13
2023-04-16T08:00:34.497Z,98275.75
2023-04-16T08:02:39.421Z,98275.44
2023-04-16T08:04:44.270Z,98266.69
2023-04-16T08:06:49.246Z,98265.72
2023-04-16T08:08:53.887Z,98259.81
2023-04-16T08:10:59.348Z,98267.53
2023-04-16T08:13:04.148Z,98267.63
2023-04-16T08:15:09.626Z,98271.91
2023-04-16T08:17:17.302Z,98272.69
2023-04-16T08:19:22.180Z,98270.72
2023-04-16T08:21:28.013Z,98271.63
2023-04-16T08:23:32.682Z,98271.31
2023-04-16T08:25:38.645Z,98267.50
2023-04-16T08:27:43.563Z,98278.44
2023-04-16T08:29:48.234Z,98276.16
2023-04-16T08:31:52.953Z,98274.53
2023-04-16T08:34:00.345Z,98274.59
2023-04-16T08:36:05.031Z,98277.06
2023-04-16T08:38:10.982Z,98272.31
2023-04-16T08:40:15.720Z,98270.94
2023-04-16T08:42:24.594Z,98274.28
2023-04-16T08:44:30.199Z,98273.28
2023-04-16T08:46:36.125Z,98276.38
2023-04-16T08:48:41.593Z,98281.91
2023-04-16T08:50:49.603Z,98277.22
2023-04-16T08:52:59.580Z,98282.22
2023-04-16T08:55:07.054Z,98279.38
2023-04-16T08:57:13.483Z,98274.63
2023-04-16T08:59:18.237Z,98282.91
2023-04-16T09:01:23.593Z,98280.59
2023-04-16T09:03:28.351Z,98286.88
2023-04-16T09:05:33.893Z,98289.13
2023-04-16T09:07:41.683Z,98289.59
2023-04-16T09:09:46.920Z,98293.56
2023-04-16T09:11:53.728Z,98295.81
2023-04-16T09:13:58.471Z,98301.50
2023-04-16T09:16:03.404Z,98296.75
2023-04-16T09:18:09.000Z,98302.81
2023-04-16T09:20:13.988Z,98301.97
2023-04-16T09:22:18.932Z,98305.47
2023-04-16T09:24:26.734Z,98302.34
2023-04-16T09:26:31.426Z,98301.34
2023-04-16T09:28:42.778Z,98309.19
2023-04-16T09:30:47.386Z,98315.63
2023-04-16T09:32:52.485Z,98316.72
2023-04-16T09:34:58.085Z,98324.47
2023-04-16T09:37:17.122Z,98317.72
2023-04-16T09:39:22.947Z,98325.47
2023-04-16T09:41:31.066Z,98321.94
2023-04-16T09:43:35.837Z,98319.22
2023-04-16T09:45:51.374Z,98315.63
2023-04-16T09:47:56.080Z,98314.88
2023-04-16T09:50:01.834Z,98308.56
2023-04-16T09:52:12.124Z,98314.78
2023-04-16T09:54:16.847Z,98312.41
2023-04-16T09:56:21.549Z,98320.47
2023-04-16T09:58:29.294Z,98318.53
2023-04-16T10:00:34.178Z,98321.09
2023-04-16T10:02:40.866Z,98322.53
2023-04-16T10:04:53.225Z,98319.31
2023-04-16T10:07:09.234Z,98313.53
2023-04-16T10:09:14.510Z,98327.81
2023-04-16T10:11:19.750Z,98322.09
2023-04-16T10:13:28.045Z,98325.66
2023-04-16T10:15:35.930Z,98329.00
2023-04-16T10:17:41.541Z,98325.81
2023-04-16T10:19:46.701Z,98331.59
2023-04-16T10:21:51.743Z,98342.69
2023-04-16T10:23:56.608Z,98343.94
2023-04-16T10:26:02.024Z,98350.59
2023-04-16T10:28:06.986Z,98343.75
2023-04-16T10:30:12.428Z,98345.63
2023-04-16T10:32:22.016Z,98349.44
2023-04-16T10:34:27.263Z,98340.09
2023-04-16T10:36:32.098Z,98337.53
2023-04-16T10:38:36.759Z,98337.81
2023-04-16T10:40:41.466Z,98337.63
2023-04-16T10:42:56.317Z,98342.44
2023-04-16T10:45:02.616Z,98336.97
2023-04-16T10:47:13.218Z,98340.09
2023-04-16T10:49:21.881Z,98335.75
2023-04-16T10:51:31.706Z,98335.59
2023-04-16T10:53:36.825Z,98338.53
2023-04-16T10:55:41.566Z,98342.53
2023-04-16T10:57:46.298Z,98336.81
2023-04-16T10:59:51.973Z,98342.50
2023-04-16T11:01:57.821Z,98341.94
2023-04-16T11:04:04.699Z,98339.22
2023-04-16T11:06:19.572Z,98343.38
2023-04-16T11:08:25.313Z,98350.88
2023-04-16T11:10:31.212Z,98350.88
2023-04-16T11:12:38.297Z,98352.97
2023-04-16T11:14:43.242Z,98352.13
2023-04-16T11:16:48.291Z,98348.38
2023-04-16T11:18:54.484Z,98353.94
2023-04-16T11:21:00.358Z,98350.59
2023-04-16T11:23:13.684Z,98354.38
2023-04-16T11:25:22.211Z,98358.88
2023-04-16T11:27:27.520Z,98354.22
2023-04-16T11:29:32.163Z,98361.28
2023-04-16T11:31:37.154Z,98365.72
2023-04-16T11:33:42.041Z,98370.06
2023-04-16T11:35:46.873Z,98368.19
2023-04-16T11:37:51.660Z,98376.19
2023-04-16T11:40:00.150Z,98380.19
2023-04-16T11:42:04.828Z,98378.19
2023-04-16T11:44:19.700Z,98377.91
2023-04-16T11:46:27.856Z,98372.72
2023-04-16T11:48:47.540Z,98378.59
2023-04-16T11:51:00.040Z,98372.66
2023-04-16T11:53:07.361Z,98368.22
2023-04-16T11:55:14.895Z,98373.72
2023-04-16T11:57:26.620Z,98374.97
2023-04-16T11:59:31.292Z,98374.88
2023-04-16T12:01:36.751Z,98375.00
2023-04-16T12:03:44.520Z,98367.72
2023-04-16T12:05:49.378Z,98372.59
2023-04-16T12:07:54.018Z,98373.50
2023-04-16T12:10:08.728Z,98364.41
2023-04-16T12:12:31.390Z,98368.78
2023-04-16T12:14:39.322Z,98369.03
2023-04-16T12:16:44.142Z,98362.91
2023-04-16T12:19:04.613Z,98366.31
2023-04-16T12:21:09.399Z,98375.34
2023-04-16T12:23:14.449Z,98377.25
2023-04-16T12:25:19.868Z,98383.41
2023-04-16T12:27:28.887Z,98385.03
2023-04-16T12:29:33.550Z,98384.19
2023-04-16T12:31:44.057Z,98396.78
2023-04-16T12:34:06.084Z,98385.25
2023-04-16T12:36:20.080Z,98388.63
2023-04-16T12:38:25.744Z,98394.00
2023-04-16T12:40:30.727Z,98389.09
2023-04-16T12:42:36.261Z,98392.41
2023-04-16T12:44:40.982Z,98387.09
2023-04-16T12:46:48.602Z,98384.03
2023-04-16T12:48:53.379Z,98387.28
2023-04-16T12:50:58.008Z,98389.97
2023-04-16T12:53:03.041Z,98386.19
2023-04-16T12:55:08.042Z,98383.97
2023-04-16T12:57:12.798Z,98385.50
2023-04-16T12:59:18.026Z,98386.34
2023-04-16T13:01:23.093Z,98378.28
2023-04-16T13:03:31.149Z,98382.41
2023-04-16T13:05:36.259Z,98378.75
2023-04-16T13:07:41.620Z,98377.59
2023-04-16T13:09:46.383Z,98376.16
2023-04-16T13:11:51.248Z,98380.38
2023-04-16T13:13:56.252Z,98378.78
2023-04-16T13:16:01.069Z,98378.88
2023-04-16T13:18:06.317Z,98371.13
2023-04-16T13:20:14.539Z,98367.69
2023-04-16T13:22:19.521Z,98369.22
2023-04-16T13:24:24.398Z,98364.97
2023-04-16T13:26:29.598Z,98373.94
2023-04-16T13:28:34.861Z,98364.09
2023-04-16T13:30:39.992Z,98367.38
2023-04-16T13:32:44.723Z,98360.56
2023-04-16T13:34:49.515Z,98361.22
2023-04-16T13:36:56.972Z,98357.28
2023-04-16T13:39:03.167Z,98358.88
2023-04-16T13:41:08.172Z,98361.91
2023-04-16T13:43:13.952Z,98362.25
2023-04-16T13:45:20.528Z,98362.78
2023-04-16T13:47:25.412Z,98360.50
2023-04-16T13:49:31.769Z,98356.16
2023-04-16T13:51:40.878Z,98363.84
2023-04-16T13:53:48.634Z,98362.13
2023-04-16T13:55:53.508Z,98367.53
2023-04-16T13:57:58.438Z,98368.66
2023-04-16T14:00:03.197Z,98368.22
2023-04-16T14:02:09.520Z,98370.66
2023-04-16T14:04:14.238Z,98374.41
2023-04-16T14:06:18.922Z,98377.59
2023-04-16T14:08:24.025Z,98378.09
2023-04-16T14:10:31.298Z,98383.16
2023-04-16T14:12:37.220Z,98380.28
2023-04-16T14:14:42.018Z,98385.63
2023-04-16T14:16:46.874Z,98382.56
2023-04-16T14:18:52.183Z,98379.63
2023-04-16T14:20:56.912Z,98390.69
2023-04-16T14:23:01.655Z,98382.31
2023-04-16T14:25:06.673Z,98382.44
2023-04-16T14:27:14.084Z,98379.22
2023-04-16T14:29:18.825Z,98383.06
2023-04-16T14:31:23.723Z,98377.09
2023-04-16T14:33:28.490Z,98379.72
2023-04-16T14:35:33.129Z,98381.13
2023-04-16T14:37:39.121Z,98371.41
2023-04-16T14:39:43.743Z,98380.88
2023-04-16T14:41:48.445Z,98376.91
2023-04-16T14:43:56.121Z,98381.22
2023-04-16T14:46:01.149Z,98371.00
2023-04-16T14:48:06.546Z,98379.69
2023-04-16T14:50:11.830Z,98374.44
2023-04-16T14:52:16.605Z,98380.81
2023-04-16T14:54:21.863Z,98375.63
2023-04-16T14:56:26.573Z,98377.94
2023-04-16T14:58:31.649Z,98388.97
2023-04-16T15:00:40.301Z,98378.00
2023-04-16T15:02:45.078Z,98384.44
2023-04-16T15:04:49.951Z,98387.66
2023-04-16T15:06:55.629Z,98397.72
2023-04-16T15:09:00.430Z,98389.84
2023-04-16T15:11:05.127Z,98383.78
2023-04-16T15:13:12.721Z,98380.56
2023-04-16T15:15:17.855Z,98384.56
2023-04-16T15:17:25.148Z,98380.59
2023-04-16T15:19:29.922Z,98380.63
2023-04-16T15:21:34.695Z,98383.91
2023-04-16T15:23:39.475Z,98393.16
2023-04-16T15:25:44.190Z,98397.00
2023-04-16T15:27:48.924Z,98393.31
2023-04-16T15:29:54.259Z,98394.31
2023-04-16T15:31:59.119Z,98398.72
2023-04-16T15:34:06.488Z,98399.09
2023-04-16T15:36:11.575Z,98401.44
2023-04-16T15:38:16.384Z,98410.31
2023-04-16T15:40:21.495Z,98411.84
2023-04-16T15:42:26.732Z,98416.63
2023-04-16T15:44:31.716Z,98409.75
2023-04-16T15:46:36.368Z,98421.28
2023-04-16T15:48:41.188Z,98424.34
2023-04-16T15:50:48.788Z,98415.94
2023-04-16T15:52:53.533Z,98419.75
2023-04-16T15:54:58.230Z,98426.69
2023-04-16T15:57:02.931Z,98422.09
2023-04-16T15:59:08.341Z,98426.78
2023-04-16T16:01:13.595Z,98425.06
2023-04-16T16:03:18.488Z,98431.06
2023-04-16T16:05:23.364Z,98433.88
2023-04-16T16:07:30.838Z,98439.59
2023-04-16T16:09:35.712Z,98433.78
2023-04-16T16:11:41.646Z,98431.59
2023-04-16T16:13:46.429Z,98444.47
2023-04-16T16:15:51.551Z,98444.63
2023-04-16T16:17:58.100Z,98444.16
2023-04-16T16:20:03.872Z,98440.78
2023-04-16T16:22:10.643Z,98444.38
2023-04-16T16:24:18.648Z,98446.09
2023-04-16T16:26:23.516Z,98443.50
2023-04-16T16:28:28.365Z,98449.25
2023-04-16T16:30:33.196Z,98458.56
2023-04-16T16:32:41.168Z,98460.19
2023-04-16T16:34:46.051Z,98458.53
2023-04-16T16:36:51.008Z,98459.38
2023-04-16T16:38:58.723Z,98460.44
2023-04-16T16:41:06.290Z,98468.41
2023-04-16T16:43:10.997Z,98474.44
2023-04-16T16:45:16.070Z,98476.16
2023-04-16T16:47:21.092Z,98472.84
2023-04-16T16:49:25.791Z,98477.50
2023-04-16T16:51:30.849Z,98479.81
2023-04-16T16:53:35.512Z,98483.34
2023-04-16T16:55:40.388Z,98479.56
2023-04-16T16:57:47.852Z,98491.09
2023-04-16T16:59:52.697Z,98495.28
2023-04-16T17:01:57.531Z,98496.13
2023-04-16T17:04:02.415Z,98494.78
2023-04-16T17:06:07.583Z,98494.63
2023-04-16T17:08:12.244Z,98502.19
2023-04-16T17:10:20.652Z,98497.25
2023-04-16T17:12:26.324Z,98502.38
2023-04-16T17:14:34.803Z,98503.53
2023-04-16T17:16:39.543Z,98503.75
2023-04-16T17:18:44.454Z,98515.63
2023-04-16T17:20:49.231Z,98515.47
2023-04-16T17:22:54.114Z,98517.09
2023-04-16T17:24:58.889Z,98520.84
2023-04-16T17:27:04.286Z,98530.22
2023-04-16T17:29:09.069Z,98528.66
2023-04-16T17:31:16.631Z,98533.59
2023-04-16T17:33:24.003Z,98536.34
2023-04-16T17:35:28.683Z,98535.72
2023-04-16T17:37:33.430Z,98550.47
2023-04-16T17:39:38.159Z,98545.84
2023-04-16T17:41:42.770Z,98551.31
2023-04-16T17:43:50.452Z,98543.63
2023-04-16T17:45:55.131Z,98554.78
2023-04-16T17:48:03.044Z,98551.88
2023-04-16T17:50:08.643Z,98554.19
2023-04-16T17:52:14.328Z,98552.38
2023-04-16T17:54:18.978Z,98564.38
2023-04-16T17:56:24.684Z,98567.50
2023-04-16T17:58:33.103Z,98577.88
2023-04-16T18:00:37.700Z,98570.75
2023-04-16T18:05:02.996Z,98581.59
2023-04-16T18:07:08.310Z,98577.41
2023-04-16T18:09:14.478Z,98584.16
2023-04-16T18:11:19.646Z,98586.69
2023-04-16T18:13:24.392Z,98590.34
2023-04-16T18:15:29.392Z,98588.13
2023-04-16T18:17:34.517Z,98595.31
2023-04-16T18:19:40.777Z,98594.97
2023-04-16T18:21:48.598Z,98601.81
2023-04-16T18:23:53.459Z,98599.94
2023-04-16T18:25:58.902Z,98606.84
2023-04-16T18:28:04.029Z,98610.50
2023-04-16T18:30:20.153Z,98612.06
2023-04-16T18:32:31.054Z,98619.22
2023-04-16T18:34:36.482Z,98624.19
2023-04-16T18:36:41.387Z,98618.72
2023-04-16T18:39:00.099Z,98615.00
2023-04-16T18:41:06.502Z,98624.47
2023-04-16T18:43:11.432Z,98630.31
2023-04-16T18:45:21.577Z,98633.31
2023-04-16T18:47:27.232Z,98633.25
2023-04-16T18:49:32.141Z,98642.91
2023-04-16T18:51:37.446Z,98639.09
2023-04-16T18:53:44.506Z,98633.72
2023-04-16T18:55:55.803Z,98635.28
2023-04-16T18:58:00.698Z,98632.03
2023-04-16T19:00:09.581Z,98643.50
2023-04-16T19:02:14.981Z,98642.59
2023-04-16T19:04:20.066Z,98647.03
2023-04-16T19:06:25.165Z,98641.66
2023-04-16T19:08:30.052Z,98650.47
2023-04-16T19:10:35.049Z,98648.78
2023-04-16T19:12:42.667Z,98646.03
2023-04-16T19:14:47.670Z,98651.75
2023-04-16T19:16:52.546Z,98657.25
2023-04-16T19:18:57.591Z,98661.44
2023-04-16T19:21:02.710Z,98656.53
2023-04-16T19:23:09.294Z,98661.94
2023-04-16T19:25:14.358Z,98665.69
2023-04-16T19:27:19.323Z,98665.06
2023-04-16T19:29:28.063Z,98665.03
2023-04-16T19:31:33.212Z,98678.44
2023-04-16T19:33:38.146Z,98675.44
2023-04-16T19:35:48.702Z,98689.38
2023-04-16T19:37:56.414Z,98679.00
2023-04-16T19:40:02.279Z,98684.50
2023-04-16T19:42:07.306Z,98689.97
2023-04-16T19:44:12.272Z,98685.81
2023-04-16T19:46:19.850Z,98683.16
2023-04-16T19:48:25.247Z,98698.75
2023-04-16T19:50:29.891Z,98693.44
2023-04-16T19:52:38.867Z,98695.69
2023-04-16T19:54:43.965Z,98696.38
2023-04-16T19:56:49.498Z,98699.63
2023-04-16T19:58:54.497Z,98705.53
2023-04-16T20:00:59.484Z,98709.78
2023-04-16T20:03:07.918Z,98701.63
2023-04-16T20:05:13.157Z,98709.50
2023-04-16T20:07:18.104Z,98710.16
2023-04-16T20:09:23.121Z,98702.06
2023-04-16T20:11:28.208Z,98710.69
2023-04-16T20:13:33.442Z,98707.75
2023-04-16T20:15:38.331Z,98709.81
2023-04-16T20:17:43.273Z,98723.50
2023-04-16T20:19:51.377Z,98715.34
2023-04-16T20:21:56.353Z,98723.84
2023-04-16T20:24:01.869Z,98711.38
2023-04-16T20:26:07.592Z,98720.31
2023-04-16T20:28:12.660Z,98716.59
2023-04-16T20:30:17.883Z,98717.56
2023-04-16T20:32:25.994Z,98710.50
2023-04-16T20:34:32.120Z,98710.47
2023-04-16T20:36:39.606Z,98708.19
2023-04-16T20:38:45.248Z,98713.53
2023-04-16T20:40:58.218Z,98706.47
2023-04-16T20:43:03.272Z,98708.31
2023-04-16T20:45:09.496Z,98712.59
2023-04-16T20:47:15.500Z,98710.94
2023-04-16T20:49:20.516Z,98715.19
2023-04-16T20:51:27.831Z,98711.47
2023-04-16T20:53:37.112Z,98704.53
2023-04-16T20:55:42.483Z,98709.72
2023-04-16T20:57:47.355Z,98709.88
2023-04-16T20:59:52.610Z,98705.38
2023-04-16T21:01:57.364Z,98709.97
2023-04-16T21:04:03.194Z,98712.50
2023-04-16T21:06:08.486Z,98709.72
2023-04-16T21:08:13.100Z,98707.97
2023-04-16T21:10:21.130Z,98710.50
2023-04-16T21:12:26.340Z,98708.09
2023-04-16T21:14:31.294Z,98703.66
2023-04-16T21:16:36.426Z,98710.63
2023-04-16T21:18:41.434Z,98701.91
2023-04-16T21:20:46.379Z,98701.91
2023-04-16T21:22:53.573Z,98703.56
2023-04-16T21:24:58.468Z,98701.00
2023-04-16T21:27:06.090Z,98697.69
2023-04-16T21:29:11.328Z,98709.97
2023-04-16T21:31:16.654Z,98699.53
2023-04-16T21:33:21.460Z,98703.34
2023-04-16T21:35:26.322Z,98703.22
2023-04-16T21:37:31.364Z,98706.72
2023-04-16T21:39:36.246Z,98703.22
2023-04-16T21:41:41.278Z,98703.38
2023-04-16T21:43:48.795Z,98703.38
2023-04-16T21:45:55.285Z,98707.84
2023-04-16T21:48:00.819Z,98699.19
2023-04-16T21:50:05.957Z,98705.25
2023-04-16T21:52:18.506Z,98706.94
2023-04-16T21:54:23.594Z,98706.09
2023-04-16T21:56:28.756Z,98701.91
2023-04-16T21:58:33.409Z,98699.34
2023-04-16T22:00:41.005Z,98703.66
2023-04-16T22:02:46.218Z,98696.75
2023-04-16T22:04:50.938Z,98695.78
2023-04-16T22:06:57.390Z,98701.22
2023-04-16T22:09:02.462Z,98694.38
2023-04-16T22:11:07.433Z,98692.50
2023-04-16T22:13:12.867Z,98694.19
2023-04-16T22:15:17.839Z,98690.75
2023-04-16T22:17:27.791Z,98691.69
2023-04-16T22:19:34.992Z,98694.19
2023-04-16T22:21:39.879Z,98692.56
2023-04-16T22:23:45.055Z,98692.69
2023-04-16T22:25:49.971Z,98691.16
2023-04-16T22:27:55.719Z,98698.03
2023-04-16T22:30:00.605Z,98693.56
2023-04-16T22:32:05.558Z,98694.59
2023-04-16T22:34:13.035Z,98695.59
2023-04-16T22:36:17.952Z,98692.69
2023-04-16T22:38:22.828Z,98689.97
2023-04-16T22:40:27.777Z,98689.03
2023-04-16T22:42:32.686Z,98687.28
2023-04-16T22:44:39.141Z,98691.59
2023-04-16T22:46:44.029Z,98686.72
2023-04-16T22:48:49.136Z,98684.19
2023-04-16T22:50:58.953Z,98692.03
2023-04-16T22:53:04.018Z,98690.28
2023-04-16T22:55:09.892Z,98696.78
2023-04-16T22:57:14.818Z,98696.03
2023-04-16T22:59:19.626Z,98701.44
2023-04-16T23:01:24.764Z,98698.72
2023-04-16T23:03:29.755Z,98699.25
2023-04-16T23:05:34.811Z,98704.75
2023-04-16T23:07:42.278Z,98703.63
2023-04-16T23:09:47.181Z,98704.41
2023-04-16T23:11:52.014Z,98702.84
2023-04-16T23:13:56.961Z,98708.78
2023-04-16T23:16:02.348Z,98700.03
2023-04-16T23:18:07.684Z,98700.81
2023-04-16T23:20:14.432Z,98702.41
2023-04-16T23:22:19.370Z,98702.53
2023-04-16T23:24:26.858Z,98699.13
2023-04-16T23:26:33.035Z,98701.72
2023-04-16T23:28:38.154Z,98704.59
2023-04-16T23:30:43.098Z,98695.81
2023-04-16T23:32:48.146Z,98707.63
2023-04-16T23:34:53.191Z,98709.16
2023-04-16T23:36:58.046Z,98703.69
2023-04-16T23:39:02.964Z,98696.63
2023-04-16T23:41:10.526Z,98699.19
2023-04-16T23:43:15.558Z,98701.59
2023-04-16T23:45:20.476Z,98696.28
2023-04-16T23:47:25.717Z,98697.19
2023-04-16T23:49:31.001Z,98693.63
2023-04-16T23:51:35.906Z,98695.31
2023-04-16T23:53:41.009Z,98694.59
2023-04-16T23:55:45.952Z,98693.78
2023-04-16T23:57:53.399Z,98694.06
2023-04-16T23:59:58.305Z,98688.66
